createdAt,value
2022-08-26T00:00:53.869Z,5.13
2022-08-26T00:06:32.806Z,4.70
2022-08-26T00:12:01.230Z,4.80
2022-08-26T00:17:36.292Z,4.80
2022-08-26T00:23:15.469Z,4.47
2022-08-26T00:26:06.274Z,4.50
2022-08-26T00:31:45.297Z,5.10
2022-08-26T00:34:35.250Z,5.27
2022-08-26T00:37:23.725Z,4.60
2022-08-26T00:43:07.006Z,4.57
2022-08-26T00:48:46.589Z,4.70
2022-08-26T00:54:30.942Z,5.63
2022-08-26T01:00:06.986Z,5.63
2022-08-26T01:02:56.628Z,6.07
2022-08-26T01:05:46.936Z,6.33
2022-08-26T01:11:21.463Z,5.77
2022-08-26T01:16:50.025Z,5.40
2022-08-26T01:22:32.596Z,5.67
2022-08-26T01:25:21.671Z,5.50
2022-08-26T01:28:16.242Z,5.53
2022-08-26T01:31:09.691Z,5.70
2022-08-26T01:36:58.614Z,6.27
2022-08-26T01:42:36.806Z,6.97
2022-08-26T01:48:16.987Z,7.00
2022-08-26T01:51:07.247Z,7.27
2022-08-26T01:56:45.803Z,6.50
2022-08-26T02:02:24.546Z,6.23
2022-08-26T02:07:58.223Z,6.33
2022-08-26T02:10:49.727Z,6.80
2022-08-26T02:16:32.689Z,5.50
2022-08-26T02:25:02.436Z,5.33
2022-08-26T02:27:51.807Z,5.20
2022-08-26T02:33:28.876Z,4.67
2022-08-26T02:39:06.155Z,4.53
2022-08-26T02:44:40.339Z,5.23
2022-08-26T02:47:28.907Z,5.13
2022-08-26T02:53:06.757Z,5.40
2022-08-26T02:55:56.157Z,5.40
2022-08-26T02:58:44.784Z,6.03
2022-08-26T03:04:19.651Z,5.47
2022-08-26T03:07:08.617Z,5.20
2022-08-26T03:09:57.869Z,5.27
2022-08-26T03:15:41.367Z,5.87
2022-08-26T03:21:19.602Z,5.37
2022-08-26T03:26:57.574Z,5.77
2022-08-26T03:32:28.624Z,7.07
2022-08-26T03:35:17.013Z,6.33
2022-08-26T03:38:08.060Z,5.80
2022-08-26T03:40:57.193Z,6.07
2022-08-26T03:46:26.757Z,6.13
2022-08-26T03:52:02.978Z,6.40
2022-08-26T03:57:41.673Z,5.73
2022-08-26T04:03:22.837Z,6.00
2022-08-26T04:06:13.795Z,6.93
2022-08-26T04:11:51.127Z,7.07
2022-08-26T04:17:17.527Z,7.10
2022-08-26T04:20:07.792Z,6.87
2022-08-26T04:22:58.346Z,6.17
2022-08-26T04:28:34.405Z,6.07
2022-08-26T04:34:10.940Z,6.53
2022-08-26T04:36:59.543Z,6.10
2022-08-26T04:42:36.624Z,6.57
2022-08-26T04:45:25.480Z,6.70
2022-08-26T04:51:01.973Z,6.77
2022-08-26T04:56:32.540Z,7.20
2022-08-26T04:59:21.956Z,7.30
2022-08-26T05:02:14.176Z,7.10
2022-08-26T05:07:48.626Z,8.37
2022-08-26T05:10:46.886Z,8.03
2022-08-26T05:16:17.571Z,7.50
2022-08-26T05:19:06.986Z,8.40
2022-08-26T05:24:48.827Z,9.00
2022-08-26T05:27:37.601Z,8.80
2022-08-26T05:30:27.569Z,8.20
2022-08-26T05:33:17.277Z,7.93
2022-08-26T05:36:10.398Z,7.60
2022-08-26T05:39:01.237Z,7.23
2022-08-26T05:44:53.695Z,6.80
2022-08-26T05:53:04.117Z,6.43
2022-08-26T05:58:43.805Z,7.30
2022-08-26T06:01:35.750Z,7.53
2022-08-26T06:06:55.390Z,7.40
2022-08-26T06:12:29.374Z,7.47
2022-08-26T06:18:00.177Z,7.40
2022-08-26T06:24:00.043Z,7.60
2022-08-26T06:26:51.531Z,6.90
2022-08-26T06:29:40.013Z,7.50
2022-08-26T06:32:29.066Z,7.13
2022-08-26T06:35:18.216Z,7.07
2022-08-26T06:40:54.844Z,7.20
2022-08-26T06:46:24.644Z,6.73
2022-08-26T06:52:00.775Z,6.33
2022-08-26T06:57:39.751Z,6.50
2022-08-26T07:00:31.309Z,5.97
2022-08-26T07:06:09.976Z,6.43
2022-08-26T07:09:04.960Z,6.70
2022-08-26T07:14:36.927Z,7.90
2022-08-26T07:17:25.328Z,7.73
2022-08-26T07:23:00.513Z,7.73
2022-08-26T07:28:34.364Z,6.73
2022-08-26T07:34:10.665Z,6.60
2022-08-26T07:39:48.333Z,7.27
2022-08-26T07:42:37.539Z,5.57
2022-08-26T07:48:13.636Z,6.63
2022-08-26T07:53:52.395Z,6.63
2022-08-26T07:59:24.248Z,7.10
2022-08-26T08:05:01.004Z,6.43
2022-08-26T08:07:49.460Z,6.73
2022-08-26T08:13:21.199Z,6.63
2022-08-26T08:18:59.237Z,6.43
2022-08-26T08:24:34.343Z,6.10
2022-08-26T08:27:36.885Z,5.30
2022-08-26T08:33:12.846Z,5.07
2022-08-26T08:41:49.817Z,5.27
2022-08-26T08:47:31.329Z,4.93
2022-08-26T08:53:16.451Z,4.77
2022-08-26T09:02:08.352Z,4.90
2022-08-26T09:08:08.357Z,4.03
2022-08-26T09:16:38.729Z,3.57
2022-08-26T09:22:13.188Z,4.00
2022-08-26T09:25:02.028Z,3.60
2022-08-26T09:30:41.032Z,3.80
2022-08-26T09:36:24.892Z,4.03
2022-08-26T09:42:22.943Z,3.97
2022-08-26T09:45:13.037Z,5.50
2022-08-26T09:50:53.209Z,4.30
2022-08-26T09:56:42.635Z,4.53
2022-08-26T10:02:27.566Z,4.83
2022-08-26T10:05:20.089Z,4.07
2022-08-26T10:11:05.255Z,4.37
2022-08-26T10:16:46.852Z,3.87
2022-08-26T10:22:28.604Z,3.93
2022-08-26T10:28:20.756Z,3.70
2022-08-26T10:31:14.776Z,3.50
2022-08-26T10:37:13.857Z,4.00
2022-08-26T10:39:57.264Z,3.67
2022-08-26T10:45:32.958Z,3.50
2022-08-26T10:51:11.349Z,3.80
2022-08-26T10:54:02.378Z,3.73
2022-08-26T10:59:44.261Z,3.30
2022-08-26T11:05:24.603Z,4.00
2022-08-26T11:11:38.264Z,3.73
2022-08-26T11:17:21.716Z,3.30
2022-08-26T11:23:10.277Z,3.57
2022-08-26T11:29:13.156Z,3.30
2022-08-26T11:34:59.148Z,3.10
2022-08-26T11:37:56.138Z,3.50
2022-08-26T11:43:34.385Z,3.30
2022-08-26T11:49:09.856Z,3.50
2022-08-26T11:55:05.180Z,3.53
2022-08-26T12:00:37.526Z,3.30
2022-08-26T12:09:30.647Z,3.20
2022-08-26T12:15:30.952Z,3.43
2022-08-26T12:21:14.094Z,3.43
2022-08-26T12:27:24.345Z,3.10
2022-08-26T12:30:19.317Z,2.90
2022-08-26T12:33:22.761Z,3.30
2022-08-26T12:36:02.172Z,3.37
2022-08-26T12:41:48.152Z,2.90
2022-08-26T12:47:39.022Z,3.13
2022-08-26T12:50:22.298Z,3.20
2022-08-26T12:56:03.447Z,3.30
2022-08-26T13:04:40.854Z,3.47
2022-08-26T13:10:34.906Z,3.23
2022-08-26T13:16:08.043Z,3.30
2022-08-26T13:21:47.700Z,3.03
2022-08-26T13:27:25.921Z,3.07
2022-08-26T13:33:02.157Z,3.07
2022-08-26T13:35:50.479Z,3.03
2022-08-26T13:44:02.705Z,2.50
2022-08-26T13:46:51.192Z,2.37
2022-08-26T13:52:30.081Z,2.27
2022-08-26T13:57:58.274Z,2.83
2022-08-26T14:00:47.139Z,2.83
2022-08-26T14:06:24.993Z,2.50
2022-08-26T14:12:03.227Z,3.17
2022-08-26T14:14:55.708Z,3.00
2022-08-26T14:17:44.429Z,2.80
2022-08-26T14:23:15.235Z,2.93
2022-08-26T14:31:29.196Z,3.50
2022-08-26T14:37:13.525Z,3.07
2022-08-26T14:40:00.729Z,3.40
2022-08-26T14:42:53.806Z,2.90
2022-08-26T14:45:45.434Z,2.57
2022-08-26T14:48:33.740Z,2.87
2022-08-26T14:54:12.457Z,2.77
2022-08-26T14:57:04.665Z,3.00
2022-08-26T15:02:37.172Z,3.77
2022-08-26T15:05:25.982Z,4.10
2022-08-26T15:08:15.823Z,3.67
2022-08-26T15:13:49.544Z,4.00
2022-08-26T15:19:25.173Z,4.40
2022-08-26T15:22:13.725Z,4.20
2022-08-26T15:25:01.960Z,4.57
2022-08-26T15:27:50.229Z,4.63
2022-08-26T15:30:39.419Z,4.77
2022-08-26T15:36:10.791Z,4.47
2022-08-26T15:41:49.616Z,4.00
2022-08-26T15:47:25.054Z,3.90
2022-08-26T15:53:07.525Z,4.87
2022-08-26T15:58:45.221Z,5.30
2022-08-26T16:01:34.173Z,5.27
2022-08-26T16:07:23.766Z,5.73
2022-08-26T16:13:01.275Z,6.37
2022-08-26T16:21:19.330Z,5.87
2022-08-26T16:24:08.921Z,5.63
2022-08-26T16:26:57.343Z,5.33
2022-08-26T16:29:45.710Z,5.87
2022-08-26T16:35:15.273Z,5.80
2022-08-26T16:40:54.196Z,5.70
2022-08-26T16:43:43.638Z,6.30
2022-08-26T16:49:17.521Z,5.40
2022-08-26T16:54:46.432Z,6.17
2022-08-26T16:57:38.203Z,5.90
2022-08-26T17:03:16.885Z,5.40
2022-08-26T17:08:55.285Z,5.93
2022-08-26T17:14:33.419Z,5.97
2022-08-26T17:20:14.287Z,6.27
2022-08-26T17:28:41.241Z,5.30
2022-08-26T17:31:35.825Z,5.47
2022-08-26T17:37:10.691Z,5.53
2022-08-26T17:39:59.311Z,5.40
2022-08-26T17:45:41.116Z,4.60
2022-08-26T17:48:29.792Z,5.17
2022-08-26T17:51:19.865Z,5.00
2022-08-26T17:56:49.444Z,4.57
2022-08-26T18:02:23.836Z,4.70
2022-08-26T18:05:13.380Z,4.20
2022-08-26T18:11:01.333Z,4.70
2022-08-26T18:13:49.830Z,4.40
2022-08-26T18:19:29.569Z,3.53
2022-08-26T18:25:07.454Z,3.30
2022-08-26T18:27:55.634Z,3.03
2022-08-26T18:33:31.511Z,3.43
2022-08-26T18:39:10.446Z,3.63
2022-08-26T18:44:47.620Z,3.33
2022-08-26T18:47:37.714Z,3.70
2022-08-26T18:53:14.715Z,3.57
2022-08-26T18:58:51.292Z,3.20
2022-08-26T19:04:37.228Z,3.90
2022-08-26T19:10:13.855Z,3.40
2022-08-26T19:13:06.734Z,3.63
2022-08-26T19:15:57.723Z,4.20
2022-08-26T19:21:38.054Z,4.20
2022-08-26T19:30:02.211Z,3.97
2022-08-26T19:32:51.172Z,3.87
2022-08-26T19:41:14.015Z,5.13
2022-08-26T19:44:02.769Z,4.13
2022-08-26T19:46:54.708Z,4.73
2022-08-26T19:52:32.473Z,4.27
2022-08-26T19:55:22.527Z,4.83
2022-08-26T20:01:10.076Z,5.23
2022-08-26T20:06:46.880Z,5.27
2022-08-26T20:12:23.128Z,4.90
2022-08-26T20:15:14.095Z,4.70
2022-08-26T20:21:03.474Z,5.10
2022-08-26T20:26:36.292Z,4.80
2022-08-26T20:32:36.318Z,4.53
2022-08-26T20:41:23.595Z,3.20
2022-08-26T20:44:24.311Z,3.90
2022-08-26T20:50:11.662Z,3.87
2022-08-26T20:53:00.935Z,4.07
2022-08-26T20:55:55.277Z,3.80
2022-08-26T20:58:49.624Z,4.20
2022-08-26T21:01:43.907Z,3.97
2022-08-26T21:10:22.738Z,4.53
2022-08-26T21:15:59.481Z,4.00
2022-08-26T21:24:23.723Z,4.23
2022-08-26T21:30:02.266Z,3.77
2022-08-26T21:38:29.149Z,4.47
2022-08-26T21:44:16.118Z,4.67
2022-08-26T21:47:09.696Z,4.60
2022-08-26T21:52:39.210Z,4.77
2022-08-26T22:00:54.621Z,4.60
2022-08-26T22:06:43.729Z,4.87
2022-08-26T22:12:23.613Z,5.07
2022-08-26T22:18:23.268Z,4.90
2022-08-26T22:21:16.819Z,5.40
2022-08-26T22:24:11.071Z,5.33
2022-08-26T22:29:47.854Z,4.50
2022-08-26T22:32:38.965Z,4.90
2022-08-26T22:41:09.767Z,4.80
2022-08-26T22:43:59.156Z,4.90
2022-08-26T22:46:48.305Z,4.83
2022-08-26T22:49:36.662Z,4.97
2022-08-26T22:52:26.287Z,4.93
2022-08-26T22:58:05.446Z,4.30
2022-08-26T23:03:41.230Z,4.20
2022-08-26T23:06:30.102Z,4.40
2022-08-26T23:09:19.398Z,4.30
2022-08-26T23:12:08.579Z,4.17
2022-08-26T23:17:42.496Z,3.90
2022-08-26T23:23:40.461Z,3.23
2022-08-26T23:26:29.011Z,3.50
2022-08-26T23:29:17.267Z,3.70
2022-08-26T23:34:58.597Z,3.93
2022-08-26T23:40:40.580Z,3.40
2022-08-26T23:43:29.339Z,3.50
2022-08-26T23:49:07.908Z,3.40
2022-08-26T23:54:45.175Z,3.80
